Flight Track Log - Related Links

Times and Time Zones

All times are in EDT time to prevent confusion due to time zone crossing. See the AAL1459 flight status page for this flight to view local times or setup timezone preferences in your user account.

Time Position Orientation Groundspeed Altitude Reporting Facility
EDT Latitude Longitude Course Direction KTS MPH feet Rate Location/Type
Tue 18:26:57 41.9530 -87.8990 217° Southwest 168 193 1,000  Level FlightAware ADS-B
Tue 18:27:27 41.9350 -87.9190 220° Southwest 183 211 2,100 2,300 Climbing FlightAware ADS-B
Tue 18:27:57 41.9140 -87.9420 219° Southwest 201 231 3,300 2,182 Climbing FlightAware ADS-B
Tue 18:28:22 41.8940 -87.9630 218° Southwest 228 262 4,100 1,800 Climbing FlightAware ADS-B
Tue 18:28:37 41.8840 -87.9790 230° Southwest 243 280 4,500 1,440 Climbing FlightAware ADS-B
Tue 18:28:47 41.8820 -87.9950 260° West 252 290 4,700 1,400 Climbing FlightAware ADS-B
Tue 18:29:07 41.8900 -88.0240 290° West 266 306 5,200 2,800 Climbing FlightAware ADS-B
Tue 18:29:32 41.9100 -88.0580 308° West 266 306 6,800 3,164 Climbing FlightAware ADS-B
Tue 18:30:02 41.9340 -88.0940 312° West 280 322 8,100 2,945 Climbing FlightAware ADS-B
Tue 18:30:27 41.9570 -88.1270 313° West 279 321 9,500 2,850 Climbing FlightAware ADS-B
Tue 18:30:42 41.9630 -88.1470 292° West 271 312 10,000 3,055 Climbing FlightAware ADS-B
Tue 18:31:22 41.9720 -88.2170 280° West 279 321 12,300 2,612 Climbing FlightAware ADS-B
Tue 18:32:07 41.9940 -88.2950 291° West 310 357 13,700 2,188 Climbing FlightAware ADS-B
Tue 18:32:47 42.0140 -88.3700 290° West 320 368 15,400 2,400 Climbing FlightAware ADS-B
Tue 18:33:32 42.0350 -88.4520 289° West 330 380 17,100 2,400 Climbing FlightAware ADS-B
Tue 18:34:12 42.0520 -88.5360 285° West 329 379 18,800 2,682 Climbing FlightAware ADS-B
Tue 18:34:57 42.0620 -88.6240 279° West 325 374 20,900 2,118 Climbing FlightAware ADS-B
Tue 18:35:37 42.0720 -88.7050 279° West 345 397 21,800 1,875 Climbing FlightAware ADS-B
Tue 18:36:17 42.0830 -88.7920 280° West 347 399 23,400 1,976 Climbing FlightAware ADS-B
Tue 18:37:02 42.0950 -88.8920 279° West 361 415 24,600 1,553 Climbing FlightAware ADS-B
Tue 18:37:42 42.1050 -88.9810 279° West 369 425 25,600 1,800 Climbing FlightAware ADS-B
Tue 18:38:22 42.1150 -89.0670 279° West 363 418 27,000 1,694 Climbing FlightAware ADS-B
Tue 18:39:07 42.1280 -89.1700 280° West 373 429 28,000 1,624 Climbing FlightAware ADS-B
Tue 18:39:47 42.1400 -89.2610 280° West 370 426 29,300 1,341 Climbing FlightAware ADS-B
Tue 18:40:32 42.1540 -89.3690 280° West 386 444 29,900 988 Climbing FlightAware ADS-B
Tue 18:41:12 42.1660 -89.4600 280° West 389 448 30,700 1,482 Climbing FlightAware ADS-B
Tue 18:41:57 42.1800 -89.5670 280° West 385 443 32,000 1,976 Climbing FlightAware ADS-B
Tue 18:42:37 42.1930 -89.6610 281° West 371 427 33,500 1,950 Climbing FlightAware ADS-B
Tue 18:43:17 42.2060 -89.7500 281° West 366 421 34,600 1,694 Climbing FlightAware ADS-B
Tue 18:44:02 42.2330 -89.8480 290° West 360 414 35,900 1,553 Climbing FlightAware ADS-B
Tue 18:44:42 42.2550 -89.9280 290° West 353 406 36,800 975 Climbing FlightAware ADS-B
Tue 18:45:22 42.2770 -90.0150 289° West 359 413 37,200 565 Climbing FlightAware ADS-B
Tue 18:46:07 42.3020 -90.1070 290° West 365 420 37,600 565 Climbing FlightAware ADS-B
Tue 18:46:47 42.3250 -90.1930 290° West 358 412 38,000 300 Climbing FlightAware ADS-B
Tue 18:47:27 42.3460 -90.2770 289° West 357 411 38,000  Level FlightAware ADS-B
Tue 18:48:12 42.3720 -90.3740 290° West 357 411 38,000  Level FlightAware ADS-B
Tue 18:48:52 42.3930 -90.4550 289° West 357 411 38,000  Level FlightAware ADS-B
Tue 18:49:37 42.4170 -90.5500 289° West 356 410 38,000  Level FlightAware ADS-B
Tue 18:50:17 42.4380 -90.6300 290° West 354 407 38,000  Level FlightAware ADS-B
Tue 18:50:57 42.4610 -90.7180 290° West 352 405 38,000  Level FlightAware ADS-B
Tue 18:51:42 42.4840 -90.8080 289° West 352 405 38,000  Level FlightAware ADS-B
Tue 18:52:22 42.5050 -90.8920 289° West 352 405 38,000  Level FlightAware ADS-B
Tue 18:53:07 42.5290 -90.9850 289° West 351 404 38,000  Level FlightAware ADS-B
Tue 18:53:47 42.5500 -91.0690 289° West 351 404 38,000  Level FlightAware ADS-B
Tue 18:54:27 42.5710 -91.1510 289° West 351 404 38,000  Level FlightAware ADS-B
Tue 18:55:12 42.5940 -91.2440 289° West 351 404 38,000  Level FlightAware ADS-B
Tue 18:55:52 42.6150 -91.3280 289° West 352 405 38,000  Level FlightAware ADS-B
Tue 18:56:37 42.6390 -91.4220 289° West 354 407 38,000  Level FlightAware ADS-B
Tue 18:57:17 42.6600 -91.5080 288° West 356 410 38,000  Level FlightAware ADS-B
Tue 18:58:02 42.6840 -91.6030 289° West 358 412 38,000  Level FlightAware ADS-B
Tue 18:58:42 42.7050 -91.6890 288° West 360 414 38,000  Level FlightAware ADS-B
Tue 18:59:22 42.7260 -91.7740 289° West 361 415 38,000  Level FlightAware ADS-B
Tue 19:00:07 42.7490 -91.8690 288° West 361 415 38,000  Level FlightAware ADS-B
Tue 19:00:47 42.7710 -91.9580 289° West 361 415 38,000  Level FlightAware ADS-B
Tue 19:01:32 42.7940 -92.0540 288° West 361 415 38,000  Level FlightAware ADS-B
Tue 19:02:12 42.8150 -92.1410 288° West 360 414 38,000  Level FlightAware ADS-B
Tue 19:02:52 42.8360 -92.2260 289° West 361 415 38,000  Level FlightAware ADS-B
Tue 19:03:37 42.8590 -92.3250 288° West 362 417 38,000  Level FlightAware ADS-B
Tue 19:04:17 42.8810 -92.4140 289° West 363 418 38,000  Level FlightAware ADS-B
Tue 19:04:57 42.9010 -92.4990 288° West 364 419 38,000  Level FlightAware ADS-B
Tue 19:05:42 42.9250 -92.5990 288° West 366 421 38,000  Level FlightAware ADS-B
Tue 19:06:22 42.9420 -92.6750 287° West 366 421 38,000  Level FlightAware ADS-B
Tue 19:07:07 42.9680 -92.7840 288° West 370 426 38,000  Level FlightAware ADS-B
Tue 19:07:47 42.9900 -92.8760 288° West 371 427 38,000  Level FlightAware ADS-B
Tue 19:08:27 43.0080 -92.9580 287° West 372 428 38,000  Level FlightAware ADS-B
Tue 19:09:12 43.0340 -93.0640 289° West 374 430 38,000  Level FlightAware ADS-B
Tue 19:09:52 43.0550 -93.1560 287° West 375 432 38,000  Level FlightAware ADS-B
Tue 19:10:52 43.0820 -93.2770 287° West 376 433 38,000  Level FlightAware ADS-B
Tue 19:11:32 43.1040 -93.3800 286° West 373 429 38,000  Level FlightAware ADS-B
Tue 19:12:12 43.1200 -93.4710 284° West 372 428 38,000  Level FlightAware ADS-B
Tue 19:12:52 43.1340 -93.5570 283° West 371 427 38,000  Level FlightAware ADS-B
Tue 19:13:32 43.1470 -93.6350 283° West 371 427 38,000  Level FlightAware ADS-B
Tue 19:14:22 43.1640 -93.7320 284° West 371 427 38,000  Level FlightAware ADS-B
Tue 19:15:02 43.1770 -93.8100 283° West 371 427 38,000  Level FlightAware ADS-B
Tue 19:15:42 43.1900 -93.8880 283° West 371 427 38,000  Level FlightAware ADS-B
Tue 19:16:22 43.2030 -93.9660 283° West 371 427 38,000  Level FlightAware ADS-B
Tue 19:17:02 43.2160 -94.0440 283° West 371 427 38,000  Level FlightAware ADS-B
Tue 19:17:42 43.2290 -94.1220 283° West 371 427 38,000  Level FlightAware ADS-B
Tue 19:18:32 43.2460 -94.2200 283° West 371 427 38,000  Level FlightAware ADS-B
Tue 19:19:12 43.2590 -94.2980 283° West 371 427 38,000  Level FlightAware ADS-B
Tue 19:19:52 43.2720 -94.3760 283° West 371 427 38,000  Level FlightAware ADS-B
Tue 19:20:32 43.2850 -94.4540 283° West 371 427 38,000  Level FlightAware ADS-B
Tue 19:21:12 43.2980 -94.5320 283° West 371 427 38,000  Level FlightAware ADS-B
Tue 19:22:02 43.3150 -94.6300 283° West 371 427 38,000  Level FlightAware ADS-B
Tue 19:23:15 43.3733 -94.9767 283° West 384 442 38,000  Level Minneapolis Center
Tue 19:24:17 43.3967 -95.1181 283° West 381 438 38,000  Level Minneapolis Center
Tue 19:25:19 43.4194 -95.2639 282° West 387 445 38,000  Level Minneapolis Center
Tue 19:26:20 43.4422 -95.4086 282° West 387 445 38,000  Level Minneapolis Center
Tue 19:27:22 43.4703 -95.5819 283° West 387 445 38,000  Level Minneapolis Center
Tue 19:28:24 43.4928 -95.7267 282° West 386 444 38,000  Level Minneapolis Center
Tue 19:29:26 43.5147 -95.8719 282° West 387 445 38,000  Level Minneapolis Center
Tue 19:30:28 43.5372 -96.0164 282° West 386 444 38,000  Level Minneapolis Center
Tue 19:31:30 43.5589 -96.1625 282° West 387 445 38,000  Level Minneapolis Center
Tue 19:32:32 43.5814 -96.3117 282° West 392 451 38,000  Level Minneapolis Center
Tue 19:33:34 43.6033 -96.4631 281° West 398 458 38,000  Level Minneapolis Center
Tue 19:34:36 43.6253 -96.6136 281° West 399 459 38,000  Level Minneapolis Center
Tue 19:35:37 43.6517 -96.7964 281° West 402 463 38,000  Level Minneapolis Center
Tue 19:36:39 43.6628 -96.9481 276° West 399 459 38,000  Level Minneapolis Center
Tue 19:37:41 43.6739 -97.1008 276° West 399 459 38,000  Level Minneapolis Center
Tue 19:38:43 43.6864 -97.2506 277° West 393 452 38,000  Level Minneapolis Center
Tue 19:39:45 43.6975 -97.4000 276° West 391 450 38,000  Level Minneapolis Center
Tue 19:40:47 43.7089 -97.5500 276° West 394 453 38,000  Level Minneapolis Center
Tue 19:42:01 43.7194 -97.6972 276° West 387 445 38,000  Level Minneapolis Center
Tue 19:43:02 43.7317 -97.8739 276° West 386 444 38,000  Level Minneapolis Center
Tue 19:44:05 43.7436 -98.0503 275° West 384 442 38,000  Level Minneapolis Center
Tue 19:45:06 43.7525 -98.1956 275° West 381 438 38,000  Level Minneapolis Center
Tue 19:46:08 43.7631 -98.3428 276° West 383 441 38,000  Level Minneapolis Center
Tue 19:47:10 43.7733 -98.4906 276° West 386 444 38,000  Level Minneapolis Center
Tue 19:48:12 43.7825 -98.6378 275° West 387 445 38,000  Level Minneapolis Center
Tue 19:49:14 43.7928 -98.8069 275° West 391 450 38,000  Level Minneapolis Center
Tue 19:50:16 43.8028 -98.9556 275° West 388 447 38,000  Level Minneapolis Center
Tue 19:51:17 43.8108 -99.1078 274° West 394 453 38,000  Level Minneapolis Center
Tue 19:52:19 43.8200 -99.2581 275° West 392 451 38,000  Level Minneapolis Center
Tue 19:53:21 43.8292 -99.4089 275° West 392 451 38,000  Level Minneapolis Center
Tue 19:54:35 43.8392 -99.5903 274° West 393 452 38,000  Level Minneapolis Center
Tue 19:55:37 43.8486 -99.7717 274° West 393 452 38,000  Level Minneapolis Center
Tue 19:56:39 43.8567 -99.9228 274° West 393 452 38,000  Level Minneapolis Center
Tue 19:57:41 43.8650 -100.0714 274° West 390 449 38,000  Level Minneapolis Center
Tue 19:58:43 43.8717 -100.2222 274° West 390 449 38,000  Level Minneapolis Center
Tue 19:59:45 43.8792 -100.3744 274° West 393 452 38,000  Level Minneapolis Center
Tue 20:00:47 43.8861 -100.5261 274° West 393 452 38,000  Level Minneapolis Center
Tue 20:01:55 43.8950 -100.7100 274° West 396 456 38,000  Level Minneapolis Center
Tue 20:02:57 43.9019 -100.8628 274° West 397 457 38,000  Level Minneapolis Center
Tue 20:03:59 43.9092 -101.0183 274° West 400 460 38,000  Level Minneapolis Center
Tue 20:05:01 43.9153 -101.1714 273° West 398 458 38,000  Level Minneapolis Center
Tue 20:06:50 43.9253 -101.4486 273° West 401 461 38,000  Level Denver Center
Tue 20:07:52 43.9331 -101.6361 273° West 404 465 38,000  Level Denver Center
Tue 20:08:54 43.9372 -101.7894 272° West 400 460 38,000  Level Denver Center
Tue 20:09:56 43.9406 -101.9425 272° West 398 458 38,000  Level Denver Center
Tue 20:10:58 43.9456 -102.0956 273° West 397 457 38,000  Level Denver Center
Tue 20:12:00 43.9517 -102.2514 273° West 401 461 38,000  Level Denver Center
Tue 20:13:02 43.9561 -102.4056 272° West 402 463 38,000  Level Denver Center
Tue 20:14:04 43.9633 -102.5953 273° West 407 468 38,000  Level Denver Center
Tue 20:15:06 43.9697 -102.7553 273° West 411 473 38,000  Level Denver Center
Tue 20:16:08 43.9739 -102.9117 272° West 412 474 38,000  Level Denver Center
Tue 20:17:10 43.9783 -103.0881 272° West 410 472 38,000  Level Denver Center
Tue 20:18:12 43.9800 -103.2381 271° West 409 471 38,000  Level Denver Center
Tue 20:19:14 43.9836 -103.3894 272° West 409 471 38,000  Level Denver Center
Tue 20:20:16 43.9864 -103.5664 271° West 412 474 38,000  Level Denver Center
Tue 20:21:18 43.9883 -103.7183 271° West 412 474 38,000  Level Denver Center
Tue 20:22:20 43.9917 -103.8950 272° West 410 472 38,000  Level Denver Center
Tue 20:23:22 43.9942 -104.0475 271° West 413 475 38,000  Level Denver Center
Tue 20:24:24 43.9961 -104.2228 271° West 410 472 38,000  Level Denver Center
Tue 20:25:26 43.9989 -104.3711 272° West 404 465 38,000  Level Denver Center
Tue 20:26:27 43.9989 -104.5453 270° West 404 465 38,000  Level Denver Center
Tue 20:27:29 44.0008 -104.6950 271° West 405 466 38,000  Level Denver Center
Tue 20:28:31 44.0022 -104.8700 271° West 406 467 38,000  Level Denver Center
Tue 20:29:33 44.0022 -105.0192 270° West 406 467 38,000  Level Denver Center
Tue 20:30:35 44.0036 -105.1942 271° West 406 467 38,000  Level Denver Center
Tue 20:31:37 44.0033 -105.3453 270° West 409 471 38,000  Level Denver Center
Tue 20:32:39 44.0039 -105.5233 270° West 413 475 38,000  Level Denver Center
Tue 20:33:41 44.0039 -105.6753 270° West 412 474 38,000  Level Denver Center
Tue 20:34:43 44.0036 -105.8531 270° West 414 476 38,000  Level Denver Center
Tue 20:35:45 44.0025 -106.0078 269° West 418 481 38,000  Level Denver Center
Tue 20:36:47 44.0025 -106.1617 270° West 416 479 38,000  Level Denver Center
Tue 20:37:48 44.0008 -106.3383 269° West 413 475 38,000  Level Denver Center
Tue 20:38:50 43.9950 -106.4889 267° West 409 471 38,000  Level Denver Center
Tue 20:39:52 43.9706 -106.6653 259° West 416 479 38,000  Level Denver Center
Tue 20:40:55 43.9517 -106.8164 260° West 416 479 38,000  Level Denver Center
Tue 20:41:56 43.9328 -106.9719 260° West 409 471 38,000  Level Denver Center
Tue 20:42:15 43.9231 -107.0250 256° West 412 474 38,000  Level Salt Lake Center
Tue 20:42:58 43.9100 -107.1453 261° West 409 471 38,000  Level Denver Center
Tue 20:43:59 43.8903 -107.2944 260° West 410 472 38,000  Level Denver Center
Tue 20:45:01 43.8675 -107.4675 260° West 408 470 38,000  Level Denver Center
Tue 20:45:21 43.8594 -107.5206 258° West 409 471 38,000  Level Salt Lake Center
Tue 20:46:22 43.8400 -107.6694 260° West 408 470 38,000  Level Salt Lake Center
Tue 20:47:24 43.8158 -107.8453 259° West 415 478 38,000  Level Salt Lake Center
Tue 20:48:25 43.7956 -107.9947 259° West 412 474 38,000  Level Salt Lake Center
Tue 20:49:27 43.7753 -108.1433 259° West 410 472 38,000  Level Salt Lake Center
Tue 20:50:29 43.7508 -108.3156 259° West 409 471 38,000  Level Salt Lake Center
Tue 20:51:30 43.7292 -108.4628 259° West 407 468 38,000  Level Salt Lake Center
Tue 20:52:32 43.7058 -108.6350 259° West 407 468 38,000  Level Salt Lake Center
Tue 20:53:33 43.6836 -108.7828 258° West 408 470 38,000  Level Salt Lake Center
Tue 20:54:35 43.6617 -108.9294 258° West 408 470 38,000  Level Salt Lake Center
Tue 20:55:37 43.6375 -109.1000 259° West 404 465 38,000  Level Salt Lake Center
Tue 20:56:38 43.6150 -109.2456 258° West 406 467 38,000  Level Salt Lake Center
Tue 20:57:40 43.5900 -109.4172 259° West 408 470 38,000  Level Salt Lake Center
Tue 20:58:41 43.5683 -109.5592 258° West 403 464 38,000  Level Salt Lake Center
Tue 20:59:43 43.5417 -109.7286 258° West 405 466 38,000  Level Salt Lake Center
Tue 21:00:44 43.5197 -109.8728 258° West 402 463 38,000  Level Salt Lake Center
Tue 21:01:46 43.4944 -110.0275 257° West 403 464 38,000  Level Salt Lake Center
Tue 21:02:47 43.4614 -110.1711 252° West 410 472 38,000  Level Salt Lake Center
Tue 21:03:49 43.4236 -110.3383 253° West 410 472 38,000  Level Salt Lake Center
Tue 21:04:50 43.3908 -110.4853 253° West 418 481 38,000  Level Salt Lake Center
Tue 21:05:52 43.3544 -110.6456 253° West 416 479 38,000  Level Salt Lake Center
Tue 21:06:53 43.3208 -110.7894 252° West 414 476 38,000  Level Salt Lake Center
Tue 21:07:55 43.2814 -110.9575 252° West 414 476 38,000  Level Salt Lake Center
Tue 21:08:56 43.2472 -111.1028 252° West 416 479 38,000  Level Salt Lake Center
Tue 21:09:57 43.2133 -111.2478 252° West 416 479 38,000  Level Salt Lake Center
Tue 21:10:59 43.1731 -111.4150 252° West 414 476 38,000  Level Salt Lake Center
Tue 21:12:00 43.1389 -111.5594 252° West 416 479 38,000  Level Salt Lake Center
Tue 21:13:02 43.0992 -111.7253 252° West 412 474 38,000  Level Salt Lake Center
Tue 21:14:03 43.0644 -111.8656 251° West 407 468 38,000  Level Salt Lake Center
Tue 21:19:47 42.8560 -112.6990 251° West 409 471 38,000  Level FlightAware ADS-B
Tue 21:20:52 42.7920 -112.8530 241° Southwest 421 484 38,000  Level FlightAware ADS-B
Tue 21:21:32 42.7560 -112.9470 242° Southwest 420 483 38,000  Level FlightAware ADS-B
Tue 21:22:12 42.7190 -113.0420 242° Southwest 421 484 38,000  Level FlightAware ADS-B
Tue 21:22:57 42.6780 -113.1460 242° Southwest 416 479 38,000  Level FlightAware ADS-B
Tue 21:23:37 42.6410 -113.2380 241° Southwest 419 482 38,000  Level FlightAware ADS-B
Tue 21:24:22 42.6000 -113.3430 242° Southwest 417 480 38,000  Level FlightAware ADS-B
Tue 21:25:02 42.5650 -113.4340 242° Southwest 416 479 38,000  Level FlightAware ADS-B
Tue 21:25:47 42.5240 -113.5370 242° Southwest 416 479 38,000  Level FlightAware ADS-B
Tue 21:26:27 42.4860 -113.6300 241° Southwest 413 475 38,000  Level FlightAware ADS-B
Tue 21:27:07 42.4500 -113.7200 242° Southwest 417 480 38,000  Level FlightAware ADS-B
Tue 21:27:52 42.4080 -113.8250 242° Southwest 418 481 38,000  Level FlightAware ADS-B
Tue 21:28:32 42.3700 -113.9180 241° Southwest 421 484 38,000  Level FlightAware ADS-B
Tue 21:29:17 42.3280 -114.0220 241° Southwest 421 484 38,000  Level FlightAware ADS-B
Tue 21:29:57 42.2910 -114.1150 242° Southwest 418 481 38,000  Level FlightAware ADS-B
Tue 21:30:37 42.2540 -114.2060 241° Southwest 414 476 38,000  Level FlightAware ADS-B
Tue 21:31:22 42.2120 -114.3100 241° Southwest 414 476 38,000  Level FlightAware ADS-B
Tue 21:32:07 42.1700 -114.4110 241° Southwest 413 475 38,000  Level FlightAware ADS-B
Tue 21:32:47 42.1330 -114.5010 241° Southwest 413 475 38,000  Level FlightAware ADS-B
Tue 21:33:27 42.0940 -114.5950 241° Southwest 412 474 38,000  Level FlightAware ADS-B
Tue 21:34:07 42.0570 -114.6840 241° Southwest 412 474 38,000  Level FlightAware ADS-B
Tue 21:34:42 42.0270 -114.7580 241° Southwest 412 474 38,000  Level FlightAware ADS-B
Tue 21:35:27 41.9880 -114.8510 241° Southwest 412 474 38,000  Level FlightAware ADS-B
Tue 21:36:17 41.9490 -114.9470 241° Southwest 412 474 38,000  Level FlightAware ADS-B
Tue 21:36:57 41.9180 -115.0230 241° Southwest 412 474 38,000  Level FlightAware ADS-B
Tue 21:37:37 41.8860 -115.0990 241° Southwest 412 474 38,000  Level FlightAware ADS-B
Tue 21:38:17 41.8550 -115.1750 241° Southwest 412 474 38,000  Level FlightAware ADS-B
Tue 21:38:57 41.8230 -115.2510 241° Southwest 412 474 38,000  Level FlightAware ADS-B
Tue 21:39:47 41.7840 -115.3460 241° Southwest 412 474 38,000  Level FlightAware ADS-B
Tue 21:40:27 41.7530 -115.4220 241° Southwest 412 474 38,000  Level FlightAware ADS-B
Tue 21:41:07 41.7210 -115.4980 241° Southwest 412 474 38,000  Level FlightAware ADS-B
Tue 21:41:47 41.6900 -115.5740 241° Southwest 412 474 38,000  Level FlightAware ADS-B
Tue 21:42:27 41.6580 -115.6500 241° Southwest 412 474 38,000  Level FlightAware ADS-B
Tue 21:43:17 41.6190 -115.7450 241° Southwest 412 474 38,000  Level FlightAware ADS-B
Tue 21:43:57 41.5880 -115.8200 241° Southwest 412 474 38,000  Level FlightAware ADS-B
Tue 21:44:37 41.5560 -115.8960 241° Southwest 412 474 38,000  Level FlightAware ADS-B
Tue 21:45:44 41.3914 -116.2072 241° Southwest 405 466 38,000  Level Salt Lake Center
Tue 21:46:46 41.3311 -116.3275 236° Southwest 407 468 38,000  Level Salt Lake Center
Tue 21:47:47 41.2606 -116.4661 236° Southwest 404 465 38,000  Level Salt Lake Center
Tue 21:48:48 41.1997 -116.5844 236° Southwest 406 467 38,000  Level Salt Lake Center
Tue 21:49:50 41.1386 -116.7000 235° Southwest 402 463 38,000  Level Salt Lake Center
Tue 21:50:51 41.0683 -116.8344 235° Southwest 399 459 38,000  Level Salt Lake Center
Tue 21:51:52 41.0072 -116.9503 235° Southwest 401 461 38,000  Level Salt Lake Center
Tue 21:52:54 40.9361 -117.0858 235° Southwest 402 463 38,000  Level Salt Lake Center
Tue 21:53:55 40.8733 -117.2019 234° Southwest 405 466 38,000  Level Salt Lake Center
Tue 21:54:57 40.8122 -117.3161 235° Southwest 401 461 38,000 -98 Level Salt Lake Center
Tue 21:55:58 40.7400 -117.4514 235° Southwest 404 465 37,800 -590 Descending Salt Lake Center
Tue 21:56:59 40.6789 -117.5661 235° Southwest 403 464 36,800 -1,034 Descending Salt Lake Center
Tue 21:57:54 40.6200 -117.6764 235° Southwest 395 455 35,800 -983 Descending Oakland Center
Tue 21:58:55 40.5622 -117.7908 236° Southwest 393 452 34,900 -934 Descending Oakland Center
Tue 21:59:56 40.5119 -117.9347 245° Southwest 391 450 33,900 -1,033 Descending Oakland Center
Tue 22:00:57 40.4606 -118.0719 244° Southwest 397 457 32,800 -1,082 Descending Oakland Center
Tue 22:01:58 40.4136 -118.2050 245° Southwest 399 459 31,700 -1,082 Descending Oakland Center
Tue 22:02:59 40.3631 -118.3369 243° Southwest 405 466 30,600 -1,082 Descending Oakland Center
Tue 22:04:00 40.3158 -118.4756 246° West 414 476 29,500 -1,328 Descending Oakland Center
Tue 22:05:01 40.2661 -118.6061 244° Southwest 406 467 27,900 -1,918 Descending Oakland Center
Tue 22:06:02 40.2175 -118.7331 243° Southwest 395 455 25,600 -2,262 Descending Oakland Center
Tue 22:07:03 40.1714 -118.8600 245° Southwest 390 449 23,300 -2,262 Descending Oakland Center
Tue 22:08:04 40.1247 -118.9828 244° Southwest 383 441 21,000 -2,213 Descending Oakland Center
Tue 22:09:05 40.0814 -119.1000 244° Southwest 367 422 18,800 -2,066 Descending Oakland Center
Tue 22:10:06 40.0386 -119.2094 243° Southwest 348 400 16,800 -1,623 Descending Oakland Center
Tue 22:11:07 39.9878 -119.3319 242° Southwest 322 371 15,500 -1,426 Descending Oakland Center
Tue 22:12:08 39.9483 -119.4231 241° Southwest 298 343 13,900 -1,820 Descending Oakland Center
Tue 22:13:09 39.9111 -119.5144 242° Southwest 288 331 11,800 -995 Descending Oakland Center
Tue 22:18:22 39.6790 -119.7660 242° Southwest 212 244 7,700 -843 Descending FlightAware ADS-B
Tue 22:19:12 39.6280 -119.7670 181° South 184 212 6,700 -1,059 Descending FlightAware ADS-B
Tue 22:19:47 39.6030 -119.7670 180° South 165 190 6,200 -943 Descending FlightAware ADS-B
Tue 22:20:22 39.5760 -119.7670 180° South 164 189 5,600 -900 Descending FlightAware ADS-B
Tue 22:20:47 39.5560 -119.7670 180° South 166 191 5,300 -982 Descending FlightAware ADS-B
Tue 22:21:17 39.5300 -119.7670 180° South 170 196 4,700 -655 Descending FlightAware ADS-B
Tue 22:21:42 39.5120 -119.7660 178° South 170 196 4,700  Level FlightAware ADS-B

Login

Don't have an account? Register now (free) for customized features, flight alerts, and more!